sensor_id;sensor_type;location;lat;lon;timestamp;P1;durP1;ratioP1;P2;durP2;ratioP2
71413;SDS011;59226;53.212;5.728;2022-09-13T00:01:07;5.00;;;2.17;;
71413;SDS011;59226;53.212;5.728;2022-09-13T00:03:33;4.13;;;1.73;;
71413;SDS011;59226;53.212;5.728;2022-09-13T00:06:05;3.37;;;1.77;;
71413;SDS011;59226;53.212;5.728;2022-09-13T00:08:31;2.10;;;1.20;;
71413;SDS011;59226;53.212;5.728;2022-09-13T00:10:56;4.03;;;2.00;;
71413;SDS011;59226;53.212;5.728;2022-09-13T00:13:21;5.10;;;1.27;;
71413;SDS011;59226;53.212;5.728;2022-09-13T00:15:47;7.13;;;2.17;;
71413;SDS011;59226;53.212;5.728;2022-09-13T00:18:13;3.93;;;2.07;;
71413;SDS011;59226;53.212;5.728;2022-09-13T00:20:38;3.33;;;1.60;;
71413;SDS011;59226;53.212;5.728;2022-09-13T00:23:03;3.37;;;2.00;;
71413;SDS011;59226;53.212;5.728;2022-09-13T00:25:29;3.43;;;1.63;;
71413;SDS011;59226;53.212;5.728;2022-09-13T00:27:54;3.57;;;1.53;;
71413;SDS011;59226;53.212;5.728;2022-09-13T00:30:19;4.17;;;2.47;;
71413;SDS011;59226;53.212;5.728;2022-09-13T00:32:44;4.53;;;2.17;;
71413;SDS011;59226;53.212;5.728;2022-09-13T00:35:10;3.30;;;1.77;;
71413;SDS011;59226;53.212;5.728;2022-09-13T00:37:35;6.00;;;2.93;;
71413;SDS011;59226;53.212;5.728;2022-09-13T00:40:00;4.83;;;2.50;;
71413;SDS011;59226;53.212;5.728;2022-09-13T00:42:28;5.40;;;2.33;;
71413;SDS011;59226;53.212;5.728;2022-09-13T00:44:57;2.63;;;1.40;;
71413;SDS011;59226;53.212;5.728;2022-09-13T00:49:49;3.00;;;1.97;;
71413;SDS011;59226;53.212;5.728;2022-09-13T00:52:15;2.65;;;1.48;;
71413;SDS011;59226;53.212;5.728;2022-09-13T00:54:44;3.90;;;1.58;;
71413;SDS011;59226;53.212;5.728;2022-09-13T00:57:09;2.75;;;1.30;;
71413;SDS011;59226;53.212;5.728;2022-09-13T00:59:43;4.90;;;2.63;;
71413;SDS011;59226;53.212;5.728;2022-09-13T01:02:09;5.15;;;1.77;;
71413;SDS011;59226;53.212;5.728;2022-09-13T01:04:35;6.07;;;2.63;;
71413;SDS011;59226;53.212;5.728;2022-09-13T01:07:01;7.10;;;1.83;;
71413;SDS011;59226;53.212;5.728;2022-09-13T01:09:28;3.67;;;1.90;;
71413;SDS011;59226;53.212;5.728;2022-09-13T01:12:03;3.97;;;1.73;;
71413;SDS011;59226;53.212;5.728;2022-09-13T01:14:32;3.93;;;2.20;;
71413;SDS011;59226;53.212;5.728;2022-09-13T01:16:57;7.18;;;1.73;;
71413;SDS011;59226;53.212;5.728;2022-09-13T01:19:23;3.53;;;1.87;;
71413;SDS011;59226;53.212;5.728;2022-09-13T01:21:59;4.40;;;2.53;;
71413;SDS011;59226;53.212;5.728;2022-09-13T01:37:09;3.53;;;2.10;;
71413;SDS011;59226;53.212;5.728;2022-09-13T01:45:00;3.90;;;1.90;;
71413;SDS011;59226;53.212;5.728;2022-09-13T01:47:41;7.20;;;2.17;;
71413;SDS011;59226;53.212;5.728;2022-09-13T01:50:15;3.10;;;1.48;;
71413;SDS011;59226;53.212;5.728;2022-09-13T01:53:00;3.47;;;1.20;;
71413;SDS011;59226;53.212;5.728;2022-09-13T01:55:37;3.65;;;1.30;;
71413;SDS011;59226;53.212;5.728;2022-09-13T02:00:36;1.93;;;0.90;;
71413;SDS011;59226;53.212;5.728;2022-09-13T02:03:28;3.80;;;1.58;;
71413;SDS011;59226;53.212;5.728;2022-09-13T02:05:54;2.75;;;1.45;;
71413;SDS011;59226;53.212;5.728;2022-09-13T02:08:23;1.17;;;0.50;;
71413;SDS011;59226;53.212;5.728;2022-09-13T02:10:51;0.75;;;0.40;;
71413;SDS011;59226;53.212;5.728;2022-09-13T02:13:21;0.50;;;0.40;;
71413;SDS011;59226;53.212;5.728;2022-09-13T02:15:50;0.35;;;0.25;;
71413;SDS011;59226;53.212;5.728;2022-09-13T02:18:18;0.20;;;0.10;;
71413;SDS011;59226;53.212;5.728;2022-09-13T02:20:45;0.30;;;0.20;;
71413;SDS011;59226;53.212;5.728;2022-09-13T02:23:22;0.20;;;0.20;;
71413;SDS011;59226;53.212;5.728;2022-09-13T02:25:49;0.63;;;0.33;;
71413;SDS011;59226;53.212;5.728;2022-09-13T02:28:15;1.02;;;0.60;;
71413;SDS011;59226;53.212;5.728;2022-09-13T02:30:43;0.32;;;0.20;;
71413;SDS011;59226;53.212;5.728;2022-09-13T02:33:56;1.25;;;0.30;;
71413;SDS011;59226;53.212;5.728;2022-09-13T02:38:31;1.48;;;0.40;;
71413;SDS011;59226;53.212;5.728;2022-09-13T02:41:09;0.43;;;0.30;;
71413;SDS011;59226;53.212;5.728;2022-09-13T02:43:40;0.20;;;0.20;;
71413;SDS011;59226;53.212;5.728;2022-09-13T02:49:01;0.50;;;0.30;;
71413;SDS011;59226;53.212;5.728;2022-09-13T02:56:42;0.57;;;0.30;;
71413;SDS011;59226;53.212;5.728;2022-09-13T03:01:36;0.40;;;0.20;;
71413;SDS011;59226;53.212;5.728;2022-09-13T03:04:02;2.15;;;0.40;;
71413;SDS011;59226;53.212;5.728;2022-09-13T03:06:28;1.00;;;0.40;;
71413;SDS011;59226;53.212;5.728;2022-09-13T03:08:53;0.13;;;0.13;;
71413;SDS011;59226;53.212;5.728;2022-09-13T03:19:08;0.45;;;0.28;;
71413;SDS011;59226;53.212;5.728;2022-09-13T03:21:44;0.30;;;0.23;;
71413;SDS011;59226;53.212;5.728;2022-09-13T03:31:31;0.63;;;0.33;;
71413;SDS011;59226;53.212;5.728;2022-09-13T03:34:05;0.77;;;0.45;;
71413;SDS011;59226;53.212;5.728;2022-09-13T03:36:35;0.40;;;0.30;;
71413;SDS011;59226;53.212;5.728;2022-09-13T03:39:06;0.30;;;0.20;;
71413;SDS011;59226;53.212;5.728;2022-09-13T03:41:33;2.57;;;0.40;;
71413;SDS011;59226;53.212;5.728;2022-09-13T03:44:01;1.23;;;0.57;;
71413;SDS011;59226;53.212;5.728;2022-09-13T03:46:29;0.93;;;0.43;;
71413;SDS011;59226;53.212;5.728;2022-09-13T03:48:57;2.25;;;0.60;;
71413;SDS011;59226;53.212;5.728;2022-09-13T03:51:24;1.70;;;0.50;;
71413;SDS011;59226;53.212;5.728;2022-09-13T03:53:53;0.30;;;0.20;;
71413;SDS011;59226;53.212;5.728;2022-09-13T03:56:22;0.70;;;0.40;;
71413;SDS011;59226;53.212;5.728;2022-09-13T03:58:47;0.60;;;0.40;;
71413;SDS011;59226;53.212;5.728;2022-09-13T04:01:12;0.60;;;0.37;;
71413;SDS011;59226;53.212;5.728;2022-09-13T04:03:38;4.20;;;0.80;;
71413;SDS011;59226;53.212;5.728;2022-09-13T04:06:04;0.47;;;0.20;;
71413;SDS011;59226;53.212;5.728;2022-09-13T04:08:30;0.40;;;0.20;;
71413;SDS011;59226;53.212;5.728;2022-09-13T04:10:55;0.43;;;0.30;;
71413;SDS011;59226;53.212;5.728;2022-09-13T04:13:20;0.40;;;0.33;;
71413;SDS011;59226;53.212;5.728;2022-09-13T04:15:47;0.57;;;0.33;;
71413;SDS011;59226;53.212;5.728;2022-09-13T04:18:12;0.32;;;0.25;;
71413;SDS011;59226;53.212;5.728;2022-09-13T04:20:37;0.60;;;0.30;;
71413;SDS011;59226;53.212;5.728;2022-09-13T04:23:03;0.57;;;0.20;;
71413;SDS011;59226;53.212;5.728;2022-09-13T04:25:28;4.22;;;0.50;;
71413;SDS011;59226;53.212;5.728;2022-09-13T04:27:54;0.87;;;0.40;;
71413;SDS011;59226;53.212;5.728;2022-09-13T04:30:20;5.20;;;0.63;;
71413;SDS011;59226;53.212;5.728;2022-09-13T04:32:46;2.43;;;0.43;;
71413;SDS011;59226;53.212;5.728;2022-09-13T04:35:11;1.33;;;0.50;;
71413;SDS011;59226;53.212;5.728;2022-09-13T04:37:36;5.13;;;0.50;;
71413;SDS011;59226;53.212;5.728;2022-09-13T04:40:02;0.47;;;0.38;;
71413;SDS011;59226;53.212;5.728;2022-09-13T04:42:27;0.20;;;0.20;;
71413;SDS011;59226;53.212;5.728;2022-09-13T04:44:53;1.40;;;0.33;;
71413;SDS011;59226;53.212;5.728;2022-09-13T04:47:19;7.28;;;0.55;;
71413;SDS011;59226;53.212;5.728;2022-09-13T04:49:44;0.80;;;0.73;;
71413;SDS011;59226;53.212;5.728;2022-09-13T04:52:09;2.03;;;0.50;;
71413;SDS011;59226;53.212;5.728;2022-09-13T04:54:34;0.23;;;0.20;;
71413;SDS011;59226;53.212;5.728;2022-09-13T04:56:59;0.83;;;0.43;;
71413;SDS011;59226;53.212;5.728;2022-09-13T04:59:25;0.70;;;0.37;;
71413;SDS011;59226;53.212;5.728;2022-09-13T05:01:50;0.80;;;0.53;;
71413;SDS011;59226;53.212;5.728;2022-09-13T05:04:15;1.15;;;0.43;;
71413;SDS011;59226;53.212;5.728;2022-09-13T05:06:41;1.53;;;0.50;;
71413;SDS011;59226;53.212;5.728;2022-09-13T05:09:06;1.17;;;0.50;;
71413;SDS011;59226;53.212;5.728;2022-09-13T05:11:31;1.53;;;0.60;;
71413;SDS011;59226;53.212;5.728;2022-09-13T05:13:57;0.67;;;0.37;;
71413;SDS011;59226;53.212;5.728;2022-09-13T05:16:23;0.30;;;0.30;;
71413;SDS011;59226;53.212;5.728;2022-09-13T05:18:49;0.30;;;0.20;;
71413;SDS011;59226;53.212;5.728;2022-09-13T05:21:15;0.20;;;0.13;;
71413;SDS011;59226;53.212;5.728;2022-09-13T05:23:41;0.60;;;0.35;;
71413;SDS011;59226;53.212;5.728;2022-09-13T05:26:06;0.30;;;0.20;;
71413;SDS011;59226;53.212;5.728;2022-09-13T05:28:33;7.20;;;0.60;;
71413;SDS011;59226;53.212;5.728;2022-09-13T05:31:00;2.42;;;0.28;;
71413;SDS011;59226;53.212;5.728;2022-09-13T05:33:26;0.70;;;0.43;;
71413;SDS011;59226;53.212;5.728;2022-09-13T05:35:51;2.47;;;0.47;;
71413;SDS011;59226;53.212;5.728;2022-09-13T05:38:16;0.67;;;0.30;;
71413;SDS011;59226;53.212;5.728;2022-09-13T05:40:42;1.43;;;0.70;;
71413;SDS011;59226;53.212;5.728;2022-09-13T05:43:07;1.03;;;0.60;;
71413;SDS011;59226;53.212;5.728;2022-09-13T05:45:32;0.27;;;0.20;;
71413;SDS011;59226;53.212;5.728;2022-09-13T05:47:58;0.53;;;0.23;;
71413;SDS011;59226;53.212;5.728;2022-09-13T05:50:23;0.20;;;0.20;;
71413;SDS011;59226;53.212;5.728;2022-09-13T05:52:52;1.33;;;0.40;;
71413;SDS011;59226;53.212;5.728;2022-09-13T05:55:18;0.20;;;0.20;;
71413;SDS011;59226;53.212;5.728;2022-09-13T05:57:43;2.43;;;0.57;;
71413;SDS011;59226;53.212;5.728;2022-09-13T06:00:08;0.40;;;0.30;;
71413;SDS011;59226;53.212;5.728;2022-09-13T06:02:34;0.60;;;0.30;;
71413;SDS011;59226;53.212;5.728;2022-09-13T06:04:59;0.30;;;0.20;;
71413;SDS011;59226;53.212;5.728;2022-09-13T06:07:24;0.97;;;0.87;;
71413;SDS011;59226;53.212;5.728;2022-09-13T06:09:49;1.03;;;0.50;;
71413;SDS011;59226;53.212;5.728;2022-09-13T06:12:15;0.23;;;0.20;;
71413;SDS011;59226;53.212;5.728;2022-09-13T06:14:40;0.50;;;0.30;;
71413;SDS011;59226;53.212;5.728;2022-09-13T06:17:05;0.93;;;0.43;;
71413;SDS011;59226;53.212;5.728;2022-09-13T06:19:31;0.70;;;0.33;;
71413;SDS011;59226;53.212;5.728;2022-09-13T06:21:56;1.47;;;0.67;;
71413;SDS011;59226;53.212;5.728;2022-09-13T06:24:21;0.60;;;0.30;;
71413;SDS011;59226;53.212;5.728;2022-09-13T06:26:46;0.30;;;0.20;;
71413;SDS011;59226;53.212;5.728;2022-09-13T06:29:12;0.83;;;0.67;;
71413;SDS011;59226;53.212;5.728;2022-09-13T06:31:37;0.93;;;0.50;;
71413;SDS011;59226;53.212;5.728;2022-09-13T06:34:09;0.67;;;0.30;;
71413;SDS011;59226;53.212;5.728;2022-09-13T06:36:35;0.30;;;0.22;;
71413;SDS011;59226;53.212;5.728;2022-09-13T06:39:00;3.63;;;0.70;;
71413;SDS011;59226;53.212;5.728;2022-09-13T06:41:26;0.20;;;0.20;;
71413;SDS011;59226;53.212;5.728;2022-09-13T06:43:55;0.90;;;0.40;;
71413;SDS011;59226;53.212;5.728;2022-09-13T06:46:21;1.38;;;0.65;;
71413;SDS011;59226;53.212;5.728;2022-09-13T06:48:47;0.40;;;0.30;;
71413;SDS011;59226;53.212;5.728;2022-09-13T06:51:13;0.50;;;0.27;;
71413;SDS011;59226;53.212;5.728;2022-09-13T06:53:39;0.75;;;0.30;;
71413;SDS011;59226;53.212;5.728;2022-09-13T06:56:12;0.85;;;0.50;;
71413;SDS011;59226;53.212;5.728;2022-09-13T06:58:38;1.30;;;0.40;;
71413;SDS011;59226;53.212;5.728;2022-09-13T07:01:16;0.30;;;0.20;;
71413;SDS011;59226;53.212;5.728;2022-09-13T07:03:44;0.20;;;0.20;;
71413;SDS011;59226;53.212;5.728;2022-09-13T07:06:23;2.80;;;0.50;;
71413;SDS011;59226;53.212;5.728;2022-09-13T07:08:49;0.50;;;0.30;;
71413;SDS011;59226;53.212;5.728;2022-09-13T07:11:15;2.00;;;0.50;;
71413;SDS011;59226;53.212;5.728;2022-09-13T07:13:46;0.30;;;0.20;;
71413;SDS011;59226;53.212;5.728;2022-09-13T07:16:11;0.68;;;0.20;;
71413;SDS011;59226;53.212;5.728;2022-09-13T07:18:37;1.05;;;0.40;;
71413;SDS011;59226;53.212;5.728;2022-09-13T07:21:04;0.70;;;0.30;;
71413;SDS011;59226;53.212;5.728;2022-09-13T07:23:33;0.30;;;0.30;;
71413;SDS011;59226;53.212;5.728;2022-09-13T07:25:59;2.10;;;0.50;;
71413;SDS011;59226;53.212;5.728;2022-09-13T07:28:39;4.72;;;0.63;;
71413;SDS011;59226;53.212;5.728;2022-09-13T07:31:12;0.30;;;0.20;;
71413;SDS011;59226;53.212;5.728;2022-09-13T07:33:38;0.30;;;0.20;;
71413;SDS011;59226;53.212;5.728;2022-09-13T07:36:04;0.22;;;0.20;;
71413;SDS011;59226;53.212;5.728;2022-09-13T07:38:31;0.60;;;0.33;;
71413;SDS011;59226;53.212;5.728;2022-09-13T07:40:56;0.57;;;0.30;;
71413;SDS011;59226;53.212;5.728;2022-09-13T07:43:23;0.22;;;0.22;;
71413;SDS011;59226;53.212;5.728;2022-09-13T07:45:55;3.60;;;0.30;;
71413;SDS011;59226;53.212;5.728;2022-09-13T07:48:21;0.93;;;0.43;;
71413;SDS011;59226;53.212;5.728;2022-09-13T07:50:55;0.88;;;0.50;;
71413;SDS011;59226;53.212;5.728;2022-09-13T07:53:20;0.63;;;0.32;;
71413;SDS011;59226;53.212;5.728;2022-09-13T07:55:45;2.63;;;0.20;;
71413;SDS011;59226;53.212;5.728;2022-09-13T07:58:11;0.40;;;0.20;;
71413;SDS011;59226;53.212;5.728;2022-09-13T08:00:36;0.20;;;0.20;;
71413;SDS011;59226;53.212;5.728;2022-09-13T08:03:01;0.20;;;0.20;;
71413;SDS011;59226;53.212;5.728;2022-09-13T08:05:26;0.20;;;0.10;;
71413;SDS011;59226;53.212;5.728;2022-09-13T08:07:51;0.37;;;0.20;;
71413;SDS011;59226;53.212;5.728;2022-09-13T08:10:17;0.57;;;0.33;;
71413;SDS011;59226;53.212;5.728;2022-09-13T08:12:42;0.20;;;0.20;;
71413;SDS011;59226;53.212;5.728;2022-09-13T08:15:07;3.70;;;1.23;;
71413;SDS011;59226;53.212;5.728;2022-09-13T08:17:32;0.20;;;0.20;;
71413;SDS011;59226;53.212;5.728;2022-09-13T08:19:58;1.80;;;0.30;;
71413;SDS011;59226;53.212;5.728;2022-09-13T08:22:23;0.60;;;0.30;;
71413;SDS011;59226;53.212;5.728;2022-09-13T08:24:48;1.13;;;0.40;;
71413;SDS011;59226;53.212;5.728;2022-09-13T08:27:13;5.53;;;0.37;;
71413;SDS011;59226;53.212;5.728;2022-09-13T08:29:38;0.30;;;0.30;;
71413;SDS011;59226;53.212;5.728;2022-09-13T08:32:04;0.20;;;0.10;;
71413;SDS011;59226;53.212;5.728;2022-09-13T08:34:29;1.07;;;0.40;;
71413;SDS011;59226;53.212;5.728;2022-09-13T08:36:54;0.70;;;0.37;;
71413;SDS011;59226;53.212;5.728;2022-09-13T08:39:19;1.50;;;0.60;;
71413;SDS011;59226;53.212;5.728;2022-09-13T08:44:40;1.90;;;0.70;;
71413;SDS011;59226;53.212;5.728;2022-09-13T08:49:35;0.63;;;0.40;;
71413;SDS011;59226;53.212;5.728;2022-09-13T08:54:41;1.13;;;0.57;;
71413;SDS011;59226;53.212;5.728;2022-09-13T08:57:16;2.50;;;0.43;;
71413;SDS011;59226;53.212;5.728;2022-09-13T09:02:20;0.70;;;0.50;;
71413;SDS011;59226;53.212;5.728;2022-09-13T09:05:29;1.00;;;0.33;;
71413;SDS011;59226;53.212;5.728;2022-09-13T09:07:39;0.70;;;0.30;;
71413;SDS011;59226;53.212;5.728;2022-09-13T09:10:16;0.52;;;0.30;;
71413;SDS011;59226;53.212;5.728;2022-09-13T09:12:51;1.67;;;0.73;;
71413;SDS011;59226;53.212;5.728;2022-09-13T09:15:21;9.93;;;0.60;;
71413;SDS011;59226;53.212;5.728;2022-09-13T09:17:49;1.60;;;0.23;;
71413;SDS011;59226;53.212;5.728;2022-09-13T09:20:19;3.72;;;0.35;;
71413;SDS011;59226;53.212;5.728;2022-09-13T09:22:45;1.65;;;0.50;;
71413;SDS011;59226;53.212;5.728;2022-09-13T09:25:11;0.30;;;0.20;;
71413;SDS011;59226;53.212;5.728;2022-09-13T09:27:36;2.43;;;0.30;;
71413;SDS011;59226;53.212;5.728;2022-09-13T09:30:02;0.37;;;0.30;;
71413;SDS011;59226;53.212;5.728;2022-09-13T09:37:21;7.13;;;0.50;;
71413;SDS011;59226;53.212;5.728;2022-09-13T09:39:47;2.60;;;0.50;;
71413;SDS011;59226;53.212;5.728;2022-09-13T09:42:13;6.28;;;0.60;;
71413;SDS011;59226;53.212;5.728;2022-09-13T09:44:41;1.70;;;0.40;;
71413;SDS011;59226;53.212;5.728;2022-09-13T09:47:27;2.45;;;0.50;;
71413;SDS011;59226;53.212;5.728;2022-09-13T09:49:54;1.40;;;0.30;;
71413;SDS011;59226;53.212;5.728;2022-09-13T09:55:19;1.23;;;0.50;;
71413;SDS011;59226;53.212;5.728;2022-09-13T09:57:52;0.97;;;0.30;;
71413;SDS011;59226;53.212;5.728;2022-09-13T10:00:17;0.40;;;0.30;;
71413;SDS011;59226;53.212;5.728;2022-09-13T10:02:43;0.50;;;0.30;;
71413;SDS011;59226;53.212;5.728;2022-09-13T10:05:08;0.83;;;0.53;;
71413;SDS011;59226;53.212;5.728;2022-09-13T10:07:34;3.03;;;0.40;;
71413;SDS011;59226;53.212;5.728;2022-09-13T10:10:07;1.27;;;0.30;;
71413;SDS011;59226;53.212;5.728;2022-09-13T10:12:33;1.67;;;0.40;;
71413;SDS011;59226;53.212;5.728;2022-09-13T10:15:03;0.20;;;0.20;;
71413;SDS011;59226;53.212;5.728;2022-09-13T10:17:29;2.80;;;0.93;;
71413;SDS011;59226;53.212;5.728;2022-09-13T10:22:38;0.20;;;0.20;;
71413;SDS011;59226;53.212;5.728;2022-09-13T10:27:48;0.75;;;0.35;;
71413;SDS011;59226;53.212;5.728;2022-09-13T10:33:24;4.90;;;0.40;;
71413;SDS011;59226;53.212;5.728;2022-09-13T10:35:52;1.50;;;0.53;;
71413;SDS011;59226;53.212;5.728;2022-09-13T10:38:26;1.13;;;0.30;;
71413;SDS011;59226;53.212;5.728;2022-09-13T10:40:53;0.20;;;0.20;;
71413;SDS011;59226;53.212;5.728;2022-09-13T10:43:19;3.07;;;0.30;;
71413;SDS011;59226;53.212;5.728;2022-09-13T10:45:49;0.45;;;0.20;;
71413;SDS011;59226;53.212;5.728;2022-09-13T10:48:16;2.38;;;0.40;;
71413;SDS011;59226;53.212;5.728;2022-09-13T10:50:59;4.72;;;0.65;;
71413;SDS011;59226;53.212;5.728;2022-09-13T10:55:55;0.88;;;0.40;;
71413;SDS011;59226;53.212;5.728;2022-09-13T10:58:21;1.23;;;0.80;;
71413;SDS011;59226;53.212;5.728;2022-09-13T11:08:45;7.43;;;0.40;;
71413;SDS011;59226;53.212;5.728;2022-09-13T11:19:00;0.20;;;0.20;;
71413;SDS011;59226;53.212;5.728;2022-09-13T11:24:14;0.50;;;0.32;;
71413;SDS011;59226;53.212;5.728;2022-09-13T11:26:52;6.10;;;0.40;;
71413;SDS011;59226;53.212;5.728;2022-09-13T11:29:23;1.70;;;0.30;;
71413;SDS011;59226;53.212;5.728;2022-09-13T11:32:00;1.58;;;0.65;;
71413;SDS011;59226;53.212;5.728;2022-09-13T11:42:26;0.80;;;0.40;;
71413;SDS011;59226;53.212;5.728;2022-09-13T11:49:57;2.93;;;0.53;;
71413;SDS011;59226;53.212;5.728;2022-09-13T11:52:34;0.22;;;0.20;;
71413;SDS011;59226;53.212;5.728;2022-09-13T11:55:10;3.42;;;0.52;;
71413;SDS011;59226;53.212;5.728;2022-09-13T11:57:39;2.63;;;0.73;;
71413;SDS011;59226;53.212;5.728;2022-09-13T12:00:13;0.73;;;0.30;;
71413;SDS011;59226;53.212;5.728;2022-09-13T12:03:27;1.10;;;0.73;;
71413;SDS011;59226;53.212;5.728;2022-09-13T12:05:27;0.28;;;0.25;;
71413;SDS011;59226;53.212;5.728;2022-09-13T12:08:05;0.30;;;0.20;;
71413;SDS011;59226;53.212;5.728;2022-09-13T12:13:17;3.58;;;0.63;;
71413;SDS011;59226;53.212;5.728;2022-09-13T12:15:45;0.30;;;0.30;;
71413;SDS011;59226;53.212;5.728;2022-09-13T12:23:14;0.83;;;0.40;;
71413;SDS011;59226;53.212;5.728;2022-09-13T12:31:09;0.73;;;0.20;;
71413;SDS011;59226;53.212;5.728;2022-09-13T12:33:41;0.60;;;0.30;;
71413;SDS011;59226;53.212;5.728;2022-09-13T12:46:08;1.02;;;0.32;;
71413;SDS011;59226;53.212;5.728;2022-09-13T13:01:30;0.67;;;0.23;;
71413;SDS011;59226;53.212;5.728;2022-09-13T13:04:09;5.15;;;0.50;;
71413;SDS011;59226;53.212;5.728;2022-09-13T13:06:46;1.70;;;0.38;;
71413;SDS011;59226;53.212;5.728;2022-09-13T13:12:08;0.60;;;0.40;;
71413;SDS011;59226;53.212;5.728;2022-09-13T13:19:47;0.40;;;0.30;;
71413;SDS011;59226;53.212;5.728;2022-09-13T13:24:55;4.85;;;0.85;;
71413;SDS011;59226;53.212;5.728;2022-09-13T13:27:34;0.30;;;0.30;;
71413;SDS011;59226;53.212;5.728;2022-09-13T13:35:28;0.85;;;0.43;;
71413;SDS011;59226;53.212;5.728;2022-09-13T13:37:56;4.88;;;0.70;;
71413;SDS011;59226;53.212;5.728;2022-09-13T13:40:37;6.13;;;0.68;;
71413;SDS011;59226;53.212;5.728;2022-09-13T13:45:57;4.68;;;0.60;;
71413;SDS011;59226;53.212;5.728;2022-09-13T13:48:37;3.55;;;0.47;;
71413;SDS011;59226;53.212;5.728;2022-09-13T13:51:25;2.37;;;0.77;;
71413;SDS011;59226;53.212;5.728;2022-09-13T13:56:24;2.40;;;0.40;;
71413;SDS011;59226;53.212;5.728;2022-09-13T13:59:04;0.25;;;0.25;;
71413;SDS011;59226;53.212;5.728;2022-09-13T14:01:34;4.10;;;0.35;;
71413;SDS011;59226;53.212;5.728;2022-09-13T14:06:47;3.87;;;0.60;;
71413;SDS011;59226;53.212;5.728;2022-09-13T14:14:49;0.75;;;0.45;;
71413;SDS011;59226;53.212;5.728;2022-09-13T14:19:53;1.07;;;0.63;;
71413;SDS011;59226;53.212;5.728;2022-09-13T14:22:22;0.40;;;0.35;;
71413;SDS011;59226;53.212;5.728;2022-09-13T14:24:54;0.55;;;0.30;;
71413;SDS011;59226;53.212;5.728;2022-09-13T14:27:21;2.60;;;0.52;;
71413;SDS011;59226;53.212;5.728;2022-09-13T14:29:56;0.50;;;0.43;;
71413;SDS011;59226;53.212;5.728;2022-09-13T14:32:24;1.07;;;0.30;;
71413;SDS011;59226;53.212;5.728;2022-09-13T14:34:50;2.85;;;0.60;;
71413;SDS011;59226;53.212;5.728;2022-09-13T14:37:17;0.45;;;0.30;;
71413;SDS011;59226;53.212;5.728;2022-09-13T14:40:00;4.88;;;0.40;;
71413;SDS011;59226;53.212;5.728;2022-09-13T14:42:25;4.22;;;0.55;;
71413;SDS011;59226;53.212;5.728;2022-09-13T14:44:51;0.20;;;0.20;;
71413;SDS011;59226;53.212;5.728;2022-09-13T14:47:34;2.30;;;0.50;;
71413;SDS011;59226;53.212;5.728;2022-09-13T14:50:02;0.60;;;0.50;;
71413;SDS011;59226;53.212;5.728;2022-09-13T14:52:35;1.10;;;0.40;;
71413;SDS011;59226;53.212;5.728;2022-09-13T14:55:07;0.38;;;0.30;;
71413;SDS011;59226;53.212;5.728;2022-09-13T14:57:36;2.80;;;0.50;;
71413;SDS011;59226;53.212;5.728;2022-09-13T15:00:05;2.00;;;0.60;;
71413;SDS011;59226;53.212;5.728;2022-09-13T15:02:37;1.17;;;0.52;;
71413;SDS011;59226;53.212;5.728;2022-09-13T15:05:04;0.70;;;0.35;;
71413;SDS011;59226;53.212;5.728;2022-09-13T15:07:33;1.65;;;0.68;;
71413;SDS011;59226;53.212;5.728;2022-09-13T15:10:18;1.38;;;0.98;;
71413;SDS011;59226;53.212;5.728;2022-09-13T15:13:27;0.40;;;0.30;;
71413;SDS011;59226;53.212;5.728;2022-09-13T15:20:28;0.88;;;0.43;;
71413;SDS011;59226;53.212;5.728;2022-09-13T15:22:53;0.30;;;0.30;;
71413;SDS011;59226;53.212;5.728;2022-09-13T15:25:20;0.43;;;0.30;;
71413;SDS011;59226;53.212;5.728;2022-09-13T15:27:46;0.70;;;0.43;;
71413;SDS011;59226;53.212;5.728;2022-09-13T15:33:02;1.67;;;0.40;;
71413;SDS011;59226;53.212;5.728;2022-09-13T15:35:29;3.50;;;0.70;;
71413;SDS011;59226;53.212;5.728;2022-09-13T15:37:59;2.40;;;0.50;;
71413;SDS011;59226;53.212;5.728;2022-09-13T15:40:25;0.60;;;0.50;;
71413;SDS011;59226;53.212;5.728;2022-09-13T15:42:52;0.43;;;0.30;;
71413;SDS011;59226;53.212;5.728;2022-09-13T15:45:17;0.57;;;0.30;;
71413;SDS011;59226;53.212;5.728;2022-09-13T15:47:44;0.38;;;0.32;;
71413;SDS011;59226;53.212;5.728;2022-09-13T15:50:17;0.30;;;0.20;;
71413;SDS011;59226;53.212;5.728;2022-09-13T15:52:43;0.40;;;0.40;;
71413;SDS011;59226;53.212;5.728;2022-09-13T15:55:10;0.50;;;0.20;;
71413;SDS011;59226;53.212;5.728;2022-09-13T15:57:35;0.20;;;0.20;;
71413;SDS011;59226;53.212;5.728;2022-09-13T16:00:00;4.23;;;0.67;;
71413;SDS011;59226;53.212;5.728;2022-09-13T16:02:26;2.10;;;0.43;;
71413;SDS011;59226;53.212;5.728;2022-09-13T16:04:53;2.17;;;0.55;;
71413;SDS011;59226;53.212;5.728;2022-09-13T16:07:18;0.32;;;0.30;;
71413;SDS011;59226;53.212;5.728;2022-09-13T16:09:44;2.00;;;0.70;;
71413;SDS011;59226;53.212;5.728;2022-09-13T16:12:09;1.53;;;0.50;;
71413;SDS011;59226;53.212;5.728;2022-09-13T16:14:35;2.27;;;0.40;;
71413;SDS011;59226;53.212;5.728;2022-09-13T16:17:01;1.07;;;0.40;;
71413;SDS011;59226;53.212;5.728;2022-09-13T16:19:28;0.30;;;0.20;;
71413;SDS011;59226;53.212;5.728;2022-09-13T16:21:54;0.90;;;0.50;;
71413;SDS011;59226;53.212;5.728;2022-09-13T16:24:19;1.60;;;1.13;;
71413;SDS011;59226;53.212;5.728;2022-09-13T16:26:44;1.90;;;0.47;;
71413;SDS011;59226;53.212;5.728;2022-09-13T16:29:10;1.90;;;0.37;;
71413;SDS011;59226;53.212;5.728;2022-09-13T16:31:35;2.97;;;0.40;;
71413;SDS011;59226;53.212;5.728;2022-09-13T16:34:00;0.40;;;0.30;;
71413;SDS011;59226;53.212;5.728;2022-09-13T16:36:26;8.77;;;0.37;;
71413;SDS011;59226;53.212;5.728;2022-09-13T16:38:53;0.68;;;0.68;;
71413;SDS011;59226;53.212;5.728;2022-09-13T16:41:18;0.30;;;0.20;;
71413;SDS011;59226;53.212;5.728;2022-09-13T16:43:43;0.50;;;0.40;;
71413;SDS011;59226;53.212;5.728;2022-09-13T16:46:09;0.53;;;0.30;;
71413;SDS011;59226;53.212;5.728;2022-09-13T16:48:34;0.30;;;0.30;;
71413;SDS011;59226;53.212;5.728;2022-09-13T16:51:03;0.68;;;0.40;;
71413;SDS011;59226;53.212;5.728;2022-09-13T16:53:30;0.30;;;0.30;;
71413;SDS011;59226;53.212;5.728;2022-09-13T16:56:02;7.35;;;0.57;;
71413;SDS011;59226;53.212;5.728;2022-09-13T16:58:28;0.47;;;0.30;;
71413;SDS011;59226;53.212;5.728;2022-09-13T17:00:53;0.40;;;0.30;;
71413;SDS011;59226;53.212;5.728;2022-09-13T17:03:18;0.30;;;0.20;;
71413;SDS011;59226;53.212;5.728;2022-09-13T17:05:43;0.50;;;0.30;;
71413;SDS011;59226;53.212;5.728;2022-09-13T17:08:08;0.83;;;0.30;;
71413;SDS011;59226;53.212;5.728;2022-09-13T17:10:36;0.50;;;0.30;;
71413;SDS011;59226;53.212;5.728;2022-09-13T17:13:01;0.20;;;0.20;;
71413;SDS011;59226;53.212;5.728;2022-09-13T17:15:26;0.30;;;0.20;;
71413;SDS011;59226;53.212;5.728;2022-09-13T17:17:51;0.50;;;0.30;;
71413;SDS011;59226;53.212;5.728;2022-09-13T17:20:17;3.30;;;0.40;;
71413;SDS011;59226;53.212;5.728;2022-09-13T17:22:42;0.20;;;0.20;;
71413;SDS011;59226;53.212;5.728;2022-09-13T17:25:07;0.20;;;0.20;;
71413;SDS011;59226;53.212;5.728;2022-09-13T17:27:33;0.20;;;0.20;;
71413;SDS011;59226;53.212;5.728;2022-09-13T17:29:58;0.20;;;0.20;;
71413;SDS011;59226;53.212;5.728;2022-09-13T17:32:26;0.40;;;0.30;;
71413;SDS011;59226;53.212;5.728;2022-09-13T17:34:51;0.20;;;0.20;;
71413;SDS011;59226;53.212;5.728;2022-09-13T17:37:16;1.17;;;0.30;;
71413;SDS011;59226;53.212;5.728;2022-09-13T17:39:41;1.03;;;0.47;;
71413;SDS011;59226;53.212;5.728;2022-09-13T17:42:07;0.20;;;0.20;;
71413;SDS011;59226;53.212;5.728;2022-09-13T17:44:32;3.20;;;0.33;;
71413;SDS011;59226;53.212;5.728;2022-09-13T17:46:57;0.20;;;0.20;;
71413;SDS011;59226;53.212;5.728;2022-09-13T17:49:23;1.23;;;0.30;;
71413;SDS011;59226;53.212;5.728;2022-09-13T17:51:48;0.30;;;0.20;;
71413;SDS011;59226;53.212;5.728;2022-09-13T17:54:14;2.35;;;0.47;;
71413;SDS011;59226;53.212;5.728;2022-09-13T17:56:40;1.90;;;0.93;;
71413;SDS011;59226;53.212;5.728;2022-09-13T18:01:31;0.50;;;0.20;;
71413;SDS011;59226;53.212;5.728;2022-09-13T18:03:56;0.20;;;0.20;;